createdAt,value
2023-06-20T00:00:51.128Z,21.29
2023-06-20T00:03:18.092Z,21.24
2023-06-20T00:05:45.526Z,21.26
2023-06-20T00:08:12.320Z,21.26
2023-06-20T00:10:38.784Z,21.24
2023-06-20T00:13:05.356Z,21.24
2023-06-20T00:15:32.090Z,21.23
2023-06-20T00:17:59.903Z,21.23
2023-06-20T00:20:26.528Z,21.21
2023-06-20T00:22:52.995Z,21.20
2023-06-20T00:25:19.625Z,21.21
2023-06-20T00:27:46.128Z,21.15
2023-06-20T00:30:14.045Z,21.16
2023-06-20T00:32:40.610Z,21.18
2023-06-20T00:35:09.195Z,21.13
2023-06-20T00:37:35.675Z,21.14
2023-06-20T00:40:02.081Z,21.09
2023-06-20T00:42:28.707Z,21.10
2023-06-20T00:44:55.182Z,21.08
2023-06-20T00:47:21.812Z,21.10
2023-06-20T00:49:50.117Z,21.06
2023-06-20T00:52:20.477Z,21.10
2023-06-20T00:54:47.282Z,21.12
2023-06-20T00:57:15.405Z,21.13
2023-06-20T00:59:44.118Z,21.12
2023-06-20T01:02:10.534Z,21.11
2023-06-20T01:04:37.189Z,21.10
2023-06-20T01:07:12.878Z,21.12
2023-06-20T01:09:49.205Z,21.11
2023-06-20T01:12:22.584Z,21.10
2023-06-20T01:14:58.771Z,21.08
2023-06-20T01:17:32.126Z,21.07
2023-06-20T01:20:09.917Z,21.05
2023-06-20T01:22:43.036Z,21.02
2023-06-20T01:25:17.933Z,21.02
2023-06-20T01:27:51.864Z,21.00
2023-06-20T01:30:23.391Z,20.99
2023-06-20T01:32:55.138Z,20.94
2023-06-20T01:35:27.749Z,20.92
2023-06-20T01:37:59.695Z,20.84
2023-06-20T01:40:28.772Z,20.89
2023-06-20T01:42:58.362Z,20.88
2023-06-20T01:45:28.486Z,20.86
2023-06-20T01:48:00.052Z,20.84
2023-06-20T01:50:29.268Z,20.81
2023-06-20T01:52:58.135Z,20.80
2023-06-20T01:55:28.630Z,20.75
2023-06-20T01:57:58.254Z,20.75
2023-06-20T02:00:26.262Z,20.74
2023-06-20T02:02:53.203Z,20.74
2023-06-20T02:05:21.980Z,20.73
2023-06-20T02:07:50.205Z,20.67
2023-06-20T02:10:18.334Z,20.72
2023-06-20T02:12:45.524Z,20.71
2023-06-20T02:15:13.269Z,20.73
2023-06-20T02:17:40.866Z,20.71
2023-06-20T02:20:08.000Z,20.71
2023-06-20T02:22:37.355Z,20.69
2023-06-20T02:25:08.526Z,20.68
2023-06-20T02:27:37.907Z,20.68
2023-06-20T02:30:07.463Z,20.65
2023-06-20T02:32:34.529Z,20.63
2023-06-20T02:35:03.401Z,20.60
2023-06-20T02:37:31.190Z,20.58
2023-06-20T02:39:57.783Z,20.52
2023-06-20T02:42:27.263Z,20.49
2023-06-20T02:44:57.222Z,20.47
2023-06-20T02:47:34.478Z,20.45
2023-06-20T02:50:08.250Z,20.42
2023-06-20T02:52:42.295Z,20.41
2023-06-20T02:55:14.978Z,20.38
2023-06-20T02:57:47.031Z,20.37
2023-06-20T03:00:16.888Z,20.35
2023-06-20T03:02:50.742Z,20.31
2023-06-20T03:05:19.429Z,20.30
2023-06-20T03:07:47.048Z,20.28
2023-06-20T03:10:13.667Z,20.25
2023-06-20T03:12:40.884Z,20.23
2023-06-20T03:15:08.736Z,20.21
2023-06-20T03:17:37.056Z,20.18
2023-06-20T03:20:05.238Z,20.17
2023-06-20T03:22:31.823Z,20.16
2023-06-20T03:24:58.337Z,20.14
2023-06-20T03:27:24.764Z,20.14
2023-06-20T03:29:51.424Z,20.13
2023-06-20T03:32:17.949Z,20.13
2023-06-20T03:34:45.794Z,20.15
2023-06-20T03:37:12.325Z,20.19
2023-06-20T03:39:38.829Z,20.22
2023-06-20T03:42:06.130Z,20.22
2023-06-20T03:44:34.970Z,20.27
2023-06-20T03:47:02.029Z,20.32
2023-06-20T03:49:28.908Z,20.36
2023-06-20T03:51:56.769Z,20.40
2023-06-20T03:54:23.333Z,20.46
2023-06-20T03:56:49.777Z,20.50
2023-06-20T03:59:16.250Z,20.54
2023-06-20T04:01:42.944Z,20.56
2023-06-20T04:04:09.491Z,20.57
2023-06-20T04:06:35.963Z,20.60
2023-06-20T04:09:03.891Z,20.65
2023-06-20T04:11:30.392Z,20.69
2023-06-20T04:13:56.884Z,20.73
2023-06-20T04:16:23.358Z,20.74
2023-06-20T04:18:49.858Z,20.79
2023-06-20T04:21:16.316Z,20.84
2023-06-20T04:23:42.889Z,20.89
2023-06-20T04:26:10.697Z,20.93
2023-06-20T04:28:37.094Z,20.98
2023-06-20T04:31:03.755Z,21.03
2023-06-20T04:33:30.418Z,21.08
2023-06-20T04:35:58.388Z,21.11
2023-06-20T04:38:30.180Z,21.13
2023-06-20T04:40:57.012Z,21.13
2023-06-20T04:43:24.950Z,21.09
2023-06-20T04:45:51.388Z,21.09
2023-06-20T04:48:18.008Z,21.13
2023-06-20T04:50:44.484Z,21.14
2023-06-20T04:53:10.878Z,21.15
2023-06-20T04:55:37.429Z,21.13
2023-06-20T04:58:03.876Z,21.15
2023-06-20T05:00:31.722Z,21.16
2023-06-20T05:02:58.321Z,21.14
2023-06-20T05:05:24.758Z,21.12
2023-06-20T05:07:51.384Z,21.07
2023-06-20T05:10:18.220Z,21.04
2023-06-20T05:12:44.662Z,21.05
2023-06-20T05:15:11.387Z,21.02
2023-06-20T05:17:39.168Z,20.99
2023-06-20T05:20:22.576Z,20.96
2023-06-20T05:22:49.194Z,20.93
2023-06-20T05:25:16.168Z,20.92
2023-06-20T05:27:42.851Z,20.90
2023-06-20T05:30:09.655Z,20.85
2023-06-20T05:32:36.317Z,20.81
2023-06-20T05:35:05.298Z,20.72
2023-06-20T05:37:31.764Z,20.74
2023-06-20T05:40:00.728Z,20.70
2023-06-20T05:42:27.980Z,20.75
2023-06-20T05:44:54.390Z,20.80
2023-06-20T05:47:20.916Z,20.87
2023-06-20T05:49:48.191Z,20.94
2023-06-20T05:52:16.190Z,21.05
2023-06-20T05:54:44.373Z,21.18
2023-06-20T05:57:11.022Z,21.24
2023-06-20T05:59:37.475Z,21.42
2023-06-20T06:02:05.178Z,21.46
2023-06-20T06:04:31.823Z,21.47
2023-06-20T06:06:58.375Z,21.49
2023-06-20T06:09:26.503Z,21.54
2023-06-20T06:11:53.252Z,21.54
2023-06-20T06:14:19.898Z,21.44
2023-06-20T06:16:46.350Z,21.24
2023-06-20T06:19:12.821Z,21.03
2023-06-20T06:21:39.198Z,20.92
2023-06-20T06:24:06.331Z,20.83
2023-06-20T06:26:34.412Z,20.68
2023-06-20T06:29:00.847Z,20.69
2023-06-20T06:31:30.168Z,20.59
2023-06-20T06:33:58.664Z,20.57
2023-06-20T06:36:27.315Z,20.57
2023-06-20T06:38:53.967Z,20.63
2023-06-20T06:41:20.594Z,20.68
2023-06-20T06:43:48.583Z,20.67
2023-06-20T06:46:16.154Z,20.69
2023-06-20T06:48:42.642Z,20.68
2023-06-20T06:51:09.219Z,20.69
2023-06-20T06:53:35.616Z,20.77
2023-06-20T06:56:02.019Z,20.75
2023-06-20T06:58:28.481Z,20.74
2023-06-20T07:00:56.210Z,20.74
2023-06-20T07:03:22.767Z,20.74
2023-06-20T07:05:49.332Z,20.73
2023-06-20T07:08:15.795Z,20.72
2023-06-20T07:10:42.218Z,20.71
2023-06-20T07:13:09.002Z,20.67
2023-06-20T07:15:35.423Z,20.67
2023-06-20T07:18:03.449Z,20.66
2023-06-20T07:20:29.969Z,20.65
2023-06-20T07:22:56.374Z,20.66
2023-06-20T07:25:22.918Z,20.64
2023-06-20T07:27:49.738Z,20.62
2023-06-20T07:30:16.597Z,20.61
2023-06-20T07:32:43.031Z,20.59
2023-06-20T07:35:10.931Z,20.56
2023-06-20T07:37:37.608Z,20.50
2023-06-20T07:40:04.698Z,20.50
2023-06-20T07:42:31.104Z,20.48
2023-06-20T07:44:57.550Z,20.46
2023-06-20T07:47:23.980Z,20.45
2023-06-20T07:49:51.548Z,20.46
2023-06-20T07:52:19.561Z,20.46
2023-06-20T07:54:46.043Z,20.47
2023-06-20T07:57:12.770Z,20.42
2023-06-20T07:59:39.270Z,20.41
2023-06-20T08:02:06.889Z,20.39
2023-06-20T08:04:33.352Z,20.38
2023-06-20T08:07:00.033Z,20.37
2023-06-20T08:09:27.845Z,20.38
2023-06-20T08:11:54.963Z,20.38
2023-06-20T08:14:22.516Z,20.28
2023-06-20T08:16:49.011Z,20.31
2023-06-20T08:19:16.160Z,20.22
2023-06-20T08:21:42.619Z,20.17
2023-06-20T08:24:09.231Z,20.13
2023-06-20T08:26:39.674Z,20.06
2023-06-20T08:29:06.871Z,20.03
2023-06-20T08:31:33.343Z,19.92
2023-06-20T08:33:59.823Z,19.75
2023-06-20T08:36:26.601Z,19.61
2023-06-20T08:38:53.029Z,19.58
2023-06-20T08:41:22.160Z,19.47
2023-06-20T08:43:50.532Z,19.45
2023-06-20T08:46:17.308Z,19.45
2023-06-20T08:48:43.814Z,19.56
2023-06-20T08:51:15.305Z,19.73
2023-06-20T08:53:45.646Z,19.94
2023-06-20T08:56:13.701Z,20.14
2023-06-20T08:58:40.187Z,20.47
2023-06-20T09:01:08.049Z,21.01
2023-06-20T09:03:34.701Z,21.58
2023-06-20T09:06:01.209Z,21.99
2023-06-20T09:08:35.065Z,22.13
2023-06-20T09:11:08.774Z,22.50
2023-06-20T09:13:35.475Z,22.18
2023-06-20T09:16:08.129Z,21.97
2023-06-20T09:18:35.062Z,21.83
2023-06-20T09:21:01.730Z,21.91
2023-06-20T09:23:28.343Z,21.85
2023-06-20T09:25:56.284Z,22.21
2023-06-20T09:28:22.727Z,22.59
2023-06-20T09:30:49.909Z,22.94
2023-06-20T09:33:17.863Z,23.34
2023-06-20T09:35:44.504Z,23.63
2023-06-20T09:38:11.121Z,23.56
2023-06-20T09:40:43.493Z,23.37
2023-06-20T09:43:10.001Z,23.65
2023-06-20T09:45:36.516Z,23.87
2023-06-20T09:48:04.484Z,23.87
2023-06-20T09:50:33.869Z,23.87
2023-06-20T09:53:06.291Z,23.92
2023-06-20T09:55:36.093Z,24.20
2023-06-20T09:58:04.192Z,24.79
2023-06-20T10:00:31.996Z,25.33
2023-06-20T10:03:01.452Z,25.79
2023-06-20T10:05:28.761Z,26.06
2023-06-20T10:07:59.610Z,26.09
2023-06-20T10:10:26.751Z,26.01
2023-06-20T10:12:55.042Z,26.04
2023-06-20T10:15:22.404Z,25.87
2023-06-20T10:17:49.020Z,26.02
2023-06-20T10:20:28.198Z,25.71
2023-06-20T10:22:57.796Z,25.41
2023-06-20T10:25:24.257Z,25.45
2023-06-20T10:27:56.490Z,25.51
2023-06-20T10:30:57.433Z,25.59
2023-06-20T10:33:24.971Z,25.84
2023-06-20T10:35:53.974Z,25.02
2023-06-20T10:38:21.965Z,25.07
2023-06-20T10:40:48.482Z,25.04
2023-06-20T10:43:19.367Z,25.19
2023-06-20T10:45:56.462Z,25.38
2023-06-20T10:48:23.136Z,25.76
2023-06-20T10:50:50.152Z,26.06
2023-06-20T10:53:17.442Z,25.73
2023-06-20T10:55:46.818Z,25.50
2023-06-20T10:58:28.431Z,25.93
2023-06-20T11:00:59.951Z,26.20
2023-06-20T11:03:26.680Z,26.46
2023-06-20T11:05:54.055Z,26.75
2023-06-20T11:08:23.909Z,27.05
2023-06-20T11:10:51.854Z,27.43
2023-06-20T11:13:18.353Z,27.32
2023-06-20T11:15:44.832Z,27.35
2023-06-20T11:18:11.497Z,26.89
2023-06-20T11:20:39.910Z,27.04
2023-06-20T11:23:08.608Z,26.95
2023-06-20T11:25:37.377Z,26.89
2023-06-20T11:28:07.121Z,26.99
2023-06-20T11:30:35.626Z,27.11
2023-06-20T11:33:04.653Z,26.85
2023-06-20T11:35:48.780Z,27.07
2023-06-20T11:38:16.699Z,26.96
2023-06-20T11:40:44.376Z,27.39
2023-06-20T11:43:27.462Z,26.54
2023-06-20T11:46:05.469Z,26.47
2023-06-20T11:48:48.637Z,26.41
2023-06-20T11:51:15.266Z,25.86
2023-06-20T11:53:41.801Z,25.79
2023-06-20T11:56:12.950Z,25.83
2023-06-20T11:58:42.543Z,25.91
2023-06-20T12:01:10.679Z,25.98
2023-06-20T12:03:38.981Z,26.47
2023-06-20T12:06:28.621Z,27.04
2023-06-20T12:08:58.972Z,27.43
2023-06-20T12:11:26.240Z,27.65
2023-06-20T12:13:54.211Z,27.66
2023-06-20T12:16:22.542Z,28.01
2023-06-20T12:18:52.399Z,28.39
2023-06-20T12:21:19.250Z,28.07
2023-06-20T12:23:45.850Z,28.06
2023-06-20T12:26:12.389Z,28.06
2023-06-20T12:28:39.553Z,27.69
2023-06-20T12:31:07.616Z,27.63
2023-06-20T12:33:34.091Z,27.76
2023-06-20T12:36:00.567Z,27.95
2023-06-20T12:38:27.344Z,27.91
2023-06-20T12:41:02.273Z,27.99
2023-06-20T12:43:28.787Z,28.00
2023-06-20T12:45:55.310Z,28.00
2023-06-20T12:48:24.894Z,27.74
2023-06-20T12:50:51.485Z,27.58
2023-06-20T12:53:19.009Z,27.84
2023-06-20T12:55:45.506Z,28.32
2023-06-20T12:58:12.758Z,28.76
2023-06-20T13:00:43.886Z,28.99
2023-06-20T13:03:11.595Z,28.80
2023-06-20T13:05:39.525Z,28.82
2023-06-20T13:08:06.331Z,28.91
2023-06-20T13:10:33.361Z,29.19
2023-06-20T13:13:01.003Z,28.79
2023-06-20T13:15:29.041Z,28.79
2023-06-20T13:18:00.466Z,28.97
2023-06-20T13:20:27.724Z,29.03
2023-06-20T13:22:56.567Z,29.26
2023-06-20T13:25:23.554Z,29.36
2023-06-20T13:27:50.823Z,29.02
2023-06-20T13:30:25.238Z,29.26
2023-06-20T13:32:54.049Z,29.34
2023-06-20T13:35:21.195Z,29.62
2023-06-20T13:37:48.030Z,28.98
2023-06-20T13:40:16.162Z,28.83
2023-06-20T13:42:44.346Z,28.84
2023-06-20T13:45:14.271Z,29.16
2023-06-20T13:47:40.948Z,29.21
2023-06-20T13:50:10.466Z,29.27
2023-06-20T13:52:37.474Z,29.41
2023-06-20T13:55:05.012Z,29.57
2023-06-20T13:57:32.915Z,29.84
2023-06-20T14:00:00.177Z,30.04
2023-06-20T14:02:26.807Z,30.21
2023-06-20T14:04:53.416Z,30.23
2023-06-20T14:07:19.984Z,30.28
2023-06-20T14:09:46.421Z,30.26
2023-06-20T14:12:12.843Z,30.42
2023-06-20T14:14:48.398Z,30.46
2023-06-20T14:17:19.372Z,30.65
2023-06-20T14:19:45.960Z,30.69
2023-06-20T14:22:12.553Z,30.26
2023-06-20T14:24:39.295Z,30.01
2023-06-20T14:27:06.744Z,30.13
2023-06-20T14:29:33.321Z,30.32
2023-06-20T14:31:59.791Z,30.36
2023-06-20T14:34:27.680Z,30.00
2023-06-20T14:36:55.994Z,29.68
2023-06-20T14:39:24.704Z,29.84
2023-06-20T14:41:51.185Z,29.62
2023-06-20T14:44:17.617Z,29.61
2023-06-20T14:46:44.177Z,29.10
2023-06-20T14:49:10.570Z,29.12
2023-06-20T14:51:38.578Z,29.03
2023-06-20T14:54:05.395Z,29.16
2023-06-20T14:56:31.756Z,29.21
2023-06-20T14:58:58.200Z,29.01
2023-06-20T15:01:24.642Z,29.08
2023-06-20T15:03:51.224Z,29.07
2023-06-20T15:06:18.187Z,29.23
2023-06-20T15:08:46.942Z,29.37
2023-06-20T15:11:13.413Z,29.48
2023-06-20T15:13:39.794Z,29.58
2023-06-20T15:16:06.378Z,29.72
2023-06-20T15:18:32.985Z,29.82
2023-06-20T15:20:59.546Z,29.90
2023-06-20T15:23:26.001Z,29.95
2023-06-20T15:25:53.776Z,29.96
2023-06-20T15:28:20.229Z,30.09
2023-06-20T15:30:46.712Z,30.08
2023-06-20T15:33:13.220Z,30.04
2023-06-20T15:35:39.643Z,30.05
2023-06-20T15:38:06.082Z,30.02
2023-06-20T15:40:32.541Z,29.77
2023-06-20T15:43:00.337Z,29.81
2023-06-20T15:45:26.771Z,29.85
2023-06-20T15:47:53.254Z,29.31
2023-06-20T15:50:19.792Z,29.17
2023-06-20T15:52:46.320Z,28.89
2023-06-20T15:55:12.849Z,28.82
2023-06-20T15:57:39.306Z,28.67
2023-06-20T16:00:08.621Z,28.59
2023-06-20T16:02:35.069Z,28.45
2023-06-20T16:05:02.358Z,28.32
2023-06-20T16:07:30.350Z,28.38
2023-06-20T16:09:56.751Z,28.45
2023-06-20T16:12:23.540Z,28.56
2023-06-20T16:14:50.096Z,28.43
2023-06-20T16:17:17.966Z,28.31
2023-06-20T16:19:44.387Z,28.38
2023-06-20T16:22:13.669Z,28.52
2023-06-20T16:24:41.467Z,28.60
2023-06-20T16:27:08.114Z,28.61
2023-06-20T16:29:34.617Z,28.60
2023-06-20T16:32:01.155Z,28.60
2023-06-20T16:34:29.001Z,28.73
2023-06-20T16:36:55.481Z,28.79
2023-06-20T16:39:22.053Z,28.90
2023-06-20T16:41:48.568Z,28.99
2023-06-20T16:44:15.088Z,29.08
2023-06-20T16:46:42.625Z,29.14
2023-06-20T16:49:10.495Z,29.19
2023-06-20T16:51:38.351Z,29.30
2023-06-20T16:54:04.790Z,29.37
2023-06-20T16:56:31.250Z,29.02
2023-06-20T16:58:57.934Z,29.05
2023-06-20T17:01:24.881Z,29.10
2023-06-20T17:03:51.404Z,29.08
2023-06-20T17:06:17.857Z,29.08
2023-06-20T17:08:45.729Z,29.02
2023-06-20T17:11:12.573Z,29.01
2023-06-20T17:13:40.190Z,29.05
2023-06-20T17:16:06.664Z,29.05
2023-06-20T17:18:33.163Z,29.05
2023-06-20T17:20:59.675Z,29.02
2023-06-20T17:23:26.159Z,28.98
2023-06-20T17:25:53.951Z,28.96
2023-06-20T17:28:20.449Z,28.89
2023-06-20T17:30:47.030Z,28.84
2023-06-20T17:33:13.553Z,28.72
2023-06-20T17:35:40.024Z,28.63
2023-06-20T17:38:06.487Z,28.56
2023-06-20T17:40:32.974Z,28.40
2023-06-20T17:43:00.705Z,28.34
2023-06-20T17:45:27.410Z,28.27
2023-06-20T17:47:53.960Z,28.12
2023-06-20T17:50:20.476Z,28.01
2023-06-20T17:52:47.010Z,27.99
2023-06-20T17:55:13.489Z,27.95
2023-06-20T17:57:54.807Z,27.88
2023-06-20T18:00:28.034Z,27.84
2023-06-20T18:02:54.973Z,27.84
2023-06-20T18:05:21.493Z,27.79
2023-06-20T18:07:47.972Z,27.67
2023-06-20T18:10:14.460Z,27.54
2023-06-20T18:12:40.922Z,27.50
2023-06-20T18:15:08.098Z,27.46
2023-06-20T18:17:35.923Z,27.37
2023-06-20T18:20:02.702Z,27.38
2023-06-20T18:22:32.065Z,27.35
2023-06-20T18:24:58.782Z,27.32
2023-06-20T18:27:25.529Z,27.30
2023-06-20T18:29:52.004Z,27.29
2023-06-20T18:32:19.552Z,27.24
2023-06-20T18:34:47.564Z,27.18
2023-06-20T18:37:13.973Z,27.14
2023-06-20T18:39:40.444Z,27.08
2023-06-20T18:42:07.298Z,27.03
2023-06-20T18:44:33.732Z,26.99
2023-06-20T18:47:00.442Z,26.95
2023-06-20T18:49:27.057Z,26.92
2023-06-20T18:51:54.851Z,26.86
2023-06-20T18:54:21.229Z,26.79
2023-06-20T18:56:48.027Z,26.72
2023-06-20T18:59:14.517Z,26.63
2023-06-20T19:01:41.053Z,26.52
2023-06-20T19:04:07.570Z,26.41
2023-06-20T19:06:33.983Z,26.31
2023-06-20T19:09:01.709Z,26.21
2023-06-20T19:11:28.464Z,26.12
2023-06-20T19:13:54.953Z,26.04
2023-06-20T19:18:48.970Z,25.87
2023-06-20T19:21:15.447Z,25.81
2023-06-20T19:23:41.954Z,25.73
2023-06-20T19:26:09.688Z,25.65
2023-06-20T19:28:36.169Z,25.54
2023-06-20T19:31:02.707Z,25.47
2023-06-20T19:33:29.334Z,25.38
2023-06-20T19:35:55.934Z,25.32
2023-06-20T19:38:22.395Z,25.23
2023-06-20T19:40:49.179Z,25.18
2023-06-20T19:43:17.004Z,25.12
2023-06-20T19:45:45.443Z,25.05
2023-06-20T19:48:13.737Z,24.96
2023-06-20T19:50:40.122Z,24.89
2023-06-20T19:53:06.599Z,24.81
2023-06-20T19:55:33.057Z,24.73
2023-06-20T19:57:59.561Z,24.64
2023-06-20T20:00:27.906Z,24.57
2023-06-20T20:02:54.910Z,24.50
2023-06-20T20:05:21.367Z,24.43
2023-06-20T20:07:47.860Z,24.37
2023-06-20T20:10:14.281Z,24.29
2023-06-20T20:12:41.160Z,24.24
2023-06-20T20:15:08.930Z,24.17
2023-06-20T20:17:36.783Z,24.15
2023-06-20T20:20:04.026Z,24.09
2023-06-20T20:22:30.560Z,24.07
2023-06-20T20:25:10.684Z,24.00
2023-06-20T20:27:38.968Z,23.96
2023-06-20T20:30:07.181Z,23.90
2023-06-20T20:32:33.739Z,23.87
2023-06-20T20:35:01.596Z,23.85
2023-06-20T20:37:28.060Z,23.79
2023-06-20T20:39:54.672Z,23.76
2023-06-20T20:42:21.261Z,23.71
2023-06-20T20:44:47.700Z,23.69
2023-06-20T20:47:14.627Z,23.66
2023-06-20T20:49:41.212Z,23.63
2023-06-20T20:52:09.982Z,23.62
2023-06-20T20:54:36.687Z,23.59
2023-06-20T20:57:03.804Z,23.58
2023-06-20T20:59:30.762Z,23.56
2023-06-20T21:01:57.409Z,23.53
2023-06-20T21:04:24.087Z,23.52
2023-06-20T21:06:50.758Z,23.52
2023-06-20T21:09:18.570Z,23.48
2023-06-20T21:11:45.333Z,23.48
2023-06-20T21:14:12.099Z,23.45
2023-06-20T21:16:38.815Z,23.45
2023-06-20T21:19:05.661Z,23.44
2023-06-20T21:21:32.260Z,23.44
2023-06-20T21:23:58.808Z,23.42
2023-06-20T21:26:26.640Z,23.41
2023-06-20T21:28:53.082Z,23.38
2023-06-20T21:31:19.653Z,23.35
2023-06-20T21:33:46.228Z,23.32
2023-06-20T21:36:13.412Z,23.30
2023-06-20T21:38:39.855Z,23.28
2023-06-20T21:41:06.327Z,23.25
2023-06-20T21:43:34.159Z,23.23
2023-06-20T21:46:01.161Z,23.22
2023-06-20T21:48:27.831Z,23.21
2023-06-20T21:50:54.368Z,23.21
2023-06-20T21:53:20.868Z,23.23
2023-06-20T21:55:47.519Z,23.21
2023-06-20T21:58:14.081Z,23.24
2023-06-20T22:00:41.834Z,23.23
2023-06-20T22:03:08.345Z,23.25
2023-06-20T22:05:34.850Z,23.25
2023-06-20T22:08:01.545Z,23.25
2023-06-20T22:10:28.157Z,23.24
2023-06-20T22:12:54.772Z,23.25
2023-06-20T22:15:21.253Z,23.25
2023-06-20T22:17:49.244Z,23.28
2023-06-20T22:20:15.764Z,23.31
2023-06-20T22:22:42.199Z,23.34
2023-06-20T22:25:29.057Z,23.35
2023-06-20T22:27:55.516Z,23.40
2023-06-20T22:30:21.971Z,23.42
2023-06-20T22:32:49.790Z,23.42
2023-06-20T22:35:16.452Z,23.42
2023-06-20T22:37:42.882Z,23.44
2023-06-20T22:40:10.188Z,23.43
2023-06-20T22:42:36.725Z,23.43
2023-06-20T22:45:03.644Z,23.43
2023-06-20T22:47:30.176Z,23.45
2023-06-20T22:49:58.004Z,23.45
2023-06-20T22:52:24.501Z,23.46
2023-06-20T22:54:50.968Z,23.44
2023-06-20T22:57:17.421Z,23.41
2023-06-20T22:59:43.871Z,23.40
2023-06-20T23:02:10.432Z,23.40
2023-06-20T23:04:36.855Z,23.39
2023-06-20T23:07:05.090Z,23.37
2023-06-20T23:09:31.611Z,23.36
2023-06-20T23:11:58.199Z,23.35
2023-06-20T23:14:24.750Z,23.32
2023-06-20T23:16:51.219Z,23.33
2023-06-20T23:19:17.680Z,23.29
2023-06-20T23:21:44.221Z,23.27
2023-06-20T23:24:12.094Z,23.26
2023-06-20T23:26:38.728Z,23.29
2023-06-20T23:29:05.310Z,23.25
2023-06-20T23:31:32.189Z,23.25
2023-06-20T23:33:58.745Z,23.23
2023-06-20T23:36:25.200Z,23.18
2023-06-20T23:38:51.740Z,23.17
2023-06-20T23:41:19.751Z,23.16
2023-06-20T23:43:46.327Z,23.14
2023-06-20T23:46:13.129Z,23.13
2023-06-20T23:48:39.669Z,23.16
2023-06-20T23:51:06.444Z,23.10
2023-06-20T23:53:32.936Z,23.00
2023-06-20T23:55:59.392Z,23.01
2023-06-20T23:58:27.232Z,22.94
